sensor_id;sensor_type;location;lat;lon;timestamp;temperature;humidity
23719;DHT22;43322;52.230;5.702;2023-12-04T00:00:11;1.10;99.90
23719;DHT22;43322;52.230;5.702;2023-12-04T00:02:40;1.10;99.90
23719;DHT22;43322;52.230;5.702;2023-12-04T00:05:07;1.00;99.90
23719;DHT22;43322;52.230;5.702;2023-12-04T00:07:34;1.10;99.90
23719;DHT22;43322;52.230;5.702;2023-12-04T00:10:01;1.00;99.90
23719;DHT22;43322;52.230;5.702;2023-12-04T00:12:28;1.10;99.90
23719;DHT22;43322;52.230;5.702;2023-12-04T00:14:56;1.20;99.90
23719;DHT22;43322;52.230;5.702;2023-12-04T00:17:23;1.20;99.90
23719;DHT22;43322;52.230;5.702;2023-12-04T00:19:49;1.10;99.90
23719;DHT22;43322;52.230;5.702;2023-12-04T00:22:16;1.10;99.90
23719;DHT22;43322;52.230;5.702;2023-12-04T00:24:43;1.20;99.90
23719;DHT22;43322;52.230;5.702;2023-12-04T00:27:10;1.10;99.90
23719;DHT22;43322;52.230;5.702;2023-12-04T00:29:37;1.00;99.90
23719;DHT22;43322;52.230;5.702;2023-12-04T00:32:05;1.00;99.90
23719;DHT22;43322;52.230;5.702;2023-12-04T00:34:32;1.10;99.90
23719;DHT22;43322;52.230;5.702;2023-12-04T00:36:59;1.20;99.90
23719;DHT22;43322;52.230;5.702;2023-12-04T00:39:26;1.20;99.90
23719;DHT22;43322;52.230;5.702;2023-12-04T00:41:52;1.10;99.90
23719;DHT22;43322;52.230;5.702;2023-12-04T00:44:19;1.10;99.90
23719;DHT22;43322;52.230;5.702;2023-12-04T00:46:46;1.20;99.90
23719;DHT22;43322;52.230;5.702;2023-12-04T00:49:14;1.10;99.90
23719;DHT22;43322;52.230;5.702;2023-12-04T00:51:41;1.20;99.90
23719;DHT22;43322;52.230;5.702;2023-12-04T00:54:08;1.00;99.90
23719;DHT22;43322;52.230;5.702;2023-12-04T00:56:34;1.10;99.90
23719;DHT22;43322;52.230;5.702;2023-12-04T00:59:04;1.10;99.90
23719;DHT22;43322;52.230;5.702;2023-12-04T01:01:32;1.10;99.90
23719;DHT22;43322;52.230;5.702;2023-12-04T01:03:59;1.20;99.90
23719;DHT22;43322;52.230;5.702;2023-12-04T01:06:27;1.10;99.90
23719;DHT22;43322;52.230;5.702;2023-12-04T01:08:55;1.10;99.90
23719;DHT22;43322;52.230;5.702;2023-12-04T01:11:22;1.10;99.90
23719;DHT22;43322;52.230;5.702;2023-12-04T01:13:50;1.20;99.90
23719;DHT22;43322;52.230;5.702;2023-12-04T01:16:16;1.00;99.90
23719;DHT22;43322;52.230;5.702;2023-12-04T01:18:43;1.00;99.90
23719;DHT22;43322;52.230;5.702;2023-12-04T01:21:10;1.00;99.90
23719;DHT22;43322;52.230;5.702;2023-12-04T01:23:38;1.10;99.90
23719;DHT22;43322;52.230;5.702;2023-12-04T01:26:05;1.00;99.90
23719;DHT22;43322;52.230;5.702;2023-12-04T01:28:32;1.00;99.90
23719;DHT22;43322;52.230;5.702;2023-12-04T01:30:59;1.00;99.90
23719;DHT22;43322;52.230;5.702;2023-12-04T01:33:26;1.20;99.90
23719;DHT22;43322;52.230;5.702;2023-12-04T01:35:52;1.20;99.90
23719;DHT22;43322;52.230;5.702;2023-12-04T01:38:19;1.20;99.90
23719;DHT22;43322;52.230;5.702;2023-12-04T01:40:47;1.20;99.90
23719;DHT22;43322;52.230;5.702;2023-12-04T01:43:14;1.20;99.90
23719;DHT22;43322;52.230;5.702;2023-12-04T01:45:41;1.10;99.90
23719;DHT22;43322;52.230;5.702;2023-12-04T01:48:09;1.10;99.90
23719;DHT22;43322;52.230;5.702;2023-12-04T01:50:36;1.00;99.90
23719;DHT22;43322;52.230;5.702;2023-12-04T01:53:05;1.10;99.90
23719;DHT22;43322;52.230;5.702;2023-12-04T01:55:33;1.00;99.90
23719;DHT22;43322;52.230;5.702;2023-12-04T01:58:02;1.00;99.90
23719;DHT22;43322;52.230;5.702;2023-12-04T02:00:29;1.00;99.90
23719;DHT22;43322;52.230;5.702;2023-12-04T02:02:57;1.10;99.90
23719;DHT22;43322;52.230;5.702;2023-12-04T02:05:24;1.00;99.90
23719;DHT22;43322;52.230;5.702;2023-12-04T02:07:52;1.00;99.90
23719;DHT22;43322;52.230;5.702;2023-12-04T02:10:19;1.10;99.90
23719;DHT22;43322;52.230;5.702;2023-12-04T02:12:46;1.10;99.90
23719;DHT22;43322;52.230;5.702;2023-12-04T02:15:14;1.10;99.90
23719;DHT22;43322;52.230;5.702;2023-12-04T02:17:43;1.10;99.90
23719;DHT22;43322;52.230;5.702;2023-12-04T02:20:12;1.00;99.90
23719;DHT22;43322;52.230;5.702;2023-12-04T02:22:39;1.00;99.90
23719;DHT22;43322;52.230;5.702;2023-12-04T02:25:08;1.00;99.90
23719;DHT22;43322;52.230;5.702;2023-12-04T02:27:39;1.00;99.90
23719;DHT22;43322;52.230;5.702;2023-12-04T02:30:10;1.00;99.90
23719;DHT22;43322;52.230;5.702;2023-12-04T02:32:42;1.00;99.90
23719;DHT22;43322;52.230;5.702;2023-12-04T02:35:11;1.00;99.90
23719;DHT22;43322;52.230;5.702;2023-12-04T02:37:40;1.00;99.90
23719;DHT22;43322;52.230;5.702;2023-12-04T02:40:11;1.10;99.90
23719;DHT22;43322;52.230;5.702;2023-12-04T02:42:37;1.20;99.90
23719;DHT22;43322;52.230;5.702;2023-12-04T02:45:05;1.20;99.90
23719;DHT22;43322;52.230;5.702;2023-12-04T02:47:32;1.10;99.90
23719;DHT22;43322;52.230;5.702;2023-12-04T02:49:59;1.10;99.90
23719;DHT22;43322;52.230;5.702;2023-12-04T02:52:26;1.10;99.90
23719;DHT22;43322;52.230;5.702;2023-12-04T02:54:52;1.20;99.90
23719;DHT22;43322;52.230;5.702;2023-12-04T02:57:21;1.00;99.90
23719;DHT22;43322;52.230;5.702;2023-12-04T02:59:48;1.10;99.90
23719;DHT22;43322;52.230;5.702;2023-12-04T03:02:15;1.00;99.90
23719;DHT22;43322;52.230;5.702;2023-12-04T03:04:42;1.10;99.90
23719;DHT22;43322;52.230;5.702;2023-12-04T03:07:08;1.00;99.90
23719;DHT22;43322;52.230;5.702;2023-12-04T03:09:35;1.10;99.90
23719;DHT22;43322;52.230;5.702;2023-12-04T03:12:02;1.00;99.90
23719;DHT22;43322;52.230;5.702;2023-12-04T03:14:30;1.00;99.90
23719;DHT22;43322;52.230;5.702;2023-12-04T03:16:57;1.00;99.90
23719;DHT22;43322;52.230;5.702;2023-12-04T03:19:24;0.90;99.90
23719;DHT22;43322;52.230;5.702;2023-12-04T03:21:51;0.90;99.90
23719;DHT22;43322;52.230;5.702;2023-12-04T03:24:18;0.80;99.90
23719;DHT22;43322;52.230;5.702;2023-12-04T03:26:44;0.80;99.90
23719;DHT22;43322;52.230;5.702;2023-12-04T03:29:11;1.00;99.90
23719;DHT22;43322;52.230;5.702;2023-12-04T03:31:40;1.00;99.90
23719;DHT22;43322;52.230;5.702;2023-12-04T03:34:06;1.00;99.90
23719;DHT22;43322;52.230;5.702;2023-12-04T03:36:33;1.00;99.90
23719;DHT22;43322;52.230;5.702;2023-12-04T03:39:00;1.00;99.90
23719;DHT22;43322;52.230;5.702;2023-12-04T03:41:27;0.90;99.90
23719;DHT22;43322;52.230;5.702;2023-12-04T03:43:53;1.00;99.90
23719;DHT22;43322;52.230;5.702;2023-12-04T03:46:20;0.90;99.90
23719;DHT22;43322;52.230;5.702;2023-12-04T03:48:48;0.90;99.90
23719;DHT22;43322;52.230;5.702;2023-12-04T03:51:15;0.90;99.90
23719;DHT22;43322;52.230;5.702;2023-12-04T03:53:42;1.00;99.90
23719;DHT22;43322;52.230;5.702;2023-12-04T03:56:10;1.10;99.90
23719;DHT22;43322;52.230;5.702;2023-12-04T03:58:37;1.10;99.90
23719;DHT22;43322;52.230;5.702;2023-12-04T04:01:04;1.00;99.90
23719;DHT22;43322;52.230;5.702;2023-12-04T04:03:31;1.10;99.90
23719;DHT22;43322;52.230;5.702;2023-12-04T04:05:59;1.00;99.90
23719;DHT22;43322;52.230;5.702;2023-12-04T04:08:26;1.00;99.90
23719;DHT22;43322;52.230;5.702;2023-12-04T04:10:53;1.10;99.90
23719;DHT22;43322;52.230;5.702;2023-12-04T04:13:19;1.10;99.90
23719;DHT22;43322;52.230;5.702;2023-12-04T04:15:46;0.90;99.90
23719;DHT22;43322;52.230;5.702;2023-12-04T04:18:13;0.90;99.90
23719;DHT22;43322;52.230;5.702;2023-12-04T04:20:40;1.00;99.90
23719;DHT22;43322;52.230;5.702;2023-12-04T04:23:08;0.90;99.90
23719;DHT22;43322;52.230;5.702;2023-12-04T04:25:35;1.00;99.90
23719;DHT22;43322;52.230;5.702;2023-12-04T04:28:01;1.00;99.90
23719;DHT22;43322;52.230;5.702;2023-12-04T04:30:28;0.80;99.90
23719;DHT22;43322;52.230;5.702;2023-12-04T04:32:55;0.80;99.90
23719;DHT22;43322;52.230;5.702;2023-12-04T04:35:22;0.80;99.90
23719;DHT22;43322;52.230;5.702;2023-12-04T04:37:48;0.70;99.90
23719;DHT22;43322;52.230;5.702;2023-12-04T04:40:17;0.70;99.90
23719;DHT22;43322;52.230;5.702;2023-12-04T04:42:43;0.80;99.90
23719;DHT22;43322;52.230;5.702;2023-12-04T04:45:10;0.70;99.90
23719;DHT22;43322;52.230;5.702;2023-12-04T04:47:37;0.70;99.90
23719;DHT22;43322;52.230;5.702;2023-12-04T04:50:05;0.80;99.90
23719;DHT22;43322;52.230;5.702;2023-12-04T04:52:31;0.90;99.90
23719;DHT22;43322;52.230;5.702;2023-12-04T04:54:58;0.80;99.90
23719;DHT22;43322;52.230;5.702;2023-12-04T04:57:26;0.80;99.90
23719;DHT22;43322;52.230;5.702;2023-12-04T04:59:53;0.80;99.90
23719;DHT22;43322;52.230;5.702;2023-12-04T05:02:19;0.80;99.90
23719;DHT22;43322;52.230;5.702;2023-12-04T05:04:46;0.80;99.90
23719;DHT22;43322;52.230;5.702;2023-12-04T05:07:13;0.70;99.90
23719;DHT22;43322;52.230;5.702;2023-12-04T05:09:39;0.80;99.90
23719;DHT22;43322;52.230;5.702;2023-12-04T05:12:07;0.90;99.90
23719;DHT22;43322;52.230;5.702;2023-12-04T05:14:35;0.80;99.90
23719;DHT22;43322;52.230;5.702;2023-12-04T05:17:02;0.90;99.90
23719;DHT22;43322;52.230;5.702;2023-12-04T05:19:28;0.90;99.90
23719;DHT22;43322;52.230;5.702;2023-12-04T05:21:55;0.80;99.90
23719;DHT22;43322;52.230;5.702;2023-12-04T05:24:22;0.90;99.90
23719;DHT22;43322;52.230;5.702;2023-12-04T05:26:49;1.00;99.90
23719;DHT22;43322;52.230;5.702;2023-12-04T05:29:16;0.80;99.90
23719;DHT22;43322;52.230;5.702;2023-12-04T05:31:44;0.70;99.90
23719;DHT22;43322;52.230;5.702;2023-12-04T05:34:10;0.60;99.90
23719;DHT22;43322;52.230;5.702;2023-12-04T05:36:37;0.80;99.90
23719;DHT22;43322;52.230;5.702;2023-12-04T05:39:04;0.90;99.90
23719;DHT22;43322;52.230;5.702;2023-12-04T05:41:31;0.90;99.90
23719;DHT22;43322;52.230;5.702;2023-12-04T05:43:57;0.80;99.90
23719;DHT22;43322;52.230;5.702;2023-12-04T05:46:24;0.70;99.90
23719;DHT22;43322;52.230;5.702;2023-12-04T05:48:53;0.60;99.90
23719;DHT22;43322;52.230;5.702;2023-12-04T05:51:19;0.60;99.90
23719;DHT22;43322;52.230;5.702;2023-12-04T05:53:47;0.60;99.90
23719;DHT22;43322;52.230;5.702;2023-12-04T05:56:14;0.70;99.90
23719;DHT22;43322;52.230;5.702;2023-12-04T05:58:41;0.80;99.90
23719;DHT22;43322;52.230;5.702;2023-12-04T06:01:08;0.80;99.90
23719;DHT22;43322;52.230;5.702;2023-12-04T06:03:34;0.90;99.90
23719;DHT22;43322;52.230;5.702;2023-12-04T06:06:03;0.80;99.90
23719;DHT22;43322;52.230;5.702;2023-12-04T06:08:30;0.80;99.90
23719;DHT22;43322;52.230;5.702;2023-12-04T06:10:57;0.90;99.90
23719;DHT22;43322;52.230;5.702;2023-12-04T06:13:24;0.90;99.90
23719;DHT22;43322;52.230;5.702;2023-12-04T06:15:50;0.90;99.90
23719;DHT22;43322;52.230;5.702;2023-12-04T06:18:17;0.90;99.90
23719;DHT22;43322;52.230;5.702;2023-12-04T06:20:46;0.90;99.90
23719;DHT22;43322;52.230;5.702;2023-12-04T06:23:14;0.80;99.90
23719;DHT22;43322;52.230;5.702;2023-12-04T06:25:42;0.80;99.90
23719;DHT22;43322;52.230;5.702;2023-12-04T06:28:09;0.80;99.90
23719;DHT22;43322;52.230;5.702;2023-12-04T06:30:37;0.80;99.90
23719;DHT22;43322;52.230;5.702;2023-12-04T06:33:04;0.80;99.90
23719;DHT22;43322;52.230;5.702;2023-12-04T06:35:31;0.70;99.90
23719;DHT22;43322;52.230;5.702;2023-12-04T06:38:04;0.70;99.90
23719;DHT22;43322;52.230;5.702;2023-12-04T06:40:33;0.70;99.90
23719;DHT22;43322;52.230;5.702;2023-12-04T06:43:01;0.80;99.90
23719;DHT22;43322;52.230;5.702;2023-12-04T06:45:28;0.80;99.90
23719;DHT22;43322;52.230;5.702;2023-12-04T06:47:59;0.80;99.90
23719;DHT22;43322;52.230;5.702;2023-12-04T06:50:25;0.90;99.90
23719;DHT22;43322;52.230;5.702;2023-12-04T06:52:52;0.80;99.90
23719;DHT22;43322;52.230;5.702;2023-12-04T06:55:19;0.80;99.90
23719;DHT22;43322;52.230;5.702;2023-12-04T06:57:47;0.90;99.90
23719;DHT22;43322;52.230;5.702;2023-12-04T07:00:15;0.90;99.90
23719;DHT22;43322;52.230;5.702;2023-12-04T07:02:42;0.90;99.90
23719;DHT22;43322;52.230;5.702;2023-12-04T07:05:09;0.80;99.90
23719;DHT22;43322;52.230;5.702;2023-12-04T07:07:35;1.30;99.90
23719;DHT22;43322;52.230;5.702;2023-12-04T07:10:02;0.80;99.90
23719;DHT22;43322;52.230;5.702;2023-12-04T07:12:29;0.80;99.90
23719;DHT22;43322;52.230;5.702;2023-12-04T07:14:57;0.80;99.90
23719;DHT22;43322;52.230;5.702;2023-12-04T07:17:24;0.90;99.90
23719;DHT22;43322;52.230;5.702;2023-12-04T07:19:51;0.90;99.90
23719;DHT22;43322;52.230;5.702;2023-12-04T07:22:18;0.80;99.90
23719;DHT22;43322;52.230;5.702;2023-12-04T07:24:45;0.90;99.90
23719;DHT22;43322;52.230;5.702;2023-12-04T07:27:12;0.90;99.90
23719;DHT22;43322;52.230;5.702;2023-12-04T07:29:38;0.90;99.90
23719;DHT22;43322;52.230;5.702;2023-12-04T07:32:07;1.00;99.90
23719;DHT22;43322;52.230;5.702;2023-12-04T07:34:34;1.00;99.90
23719;DHT22;43322;52.230;5.702;2023-12-04T07:37:00;0.90;99.90
23719;DHT22;43322;52.230;5.702;2023-12-04T07:39:28;0.90;99.90
23719;DHT22;43322;52.230;5.702;2023-12-04T07:41:54;0.90;99.90
23719;DHT22;43322;52.230;5.702;2023-12-04T07:44:21;0.90;99.90
23719;DHT22;43322;52.230;5.702;2023-12-04T07:46:48;0.80;99.90
23719;DHT22;43322;52.230;5.702;2023-12-04T07:49:16;0.80;99.90
23719;DHT22;43322;52.230;5.702;2023-12-04T07:51:43;0.80;99.90
23719;DHT22;43322;52.230;5.702;2023-12-04T07:54:10;0.80;99.90
23719;DHT22;43322;52.230;5.702;2023-12-04T07:56:37;0.90;99.90
23719;DHT22;43322;52.230;5.702;2023-12-04T07:59:03;1.00;99.90
23719;DHT22;43322;52.230;5.702;2023-12-04T08:01:30;1.00;99.90
23719;DHT22;43322;52.230;5.702;2023-12-04T08:03:57;0.90;99.90
23719;DHT22;43322;52.230;5.702;2023-12-04T08:06:25;0.90;99.90
23719;DHT22;43322;52.230;5.702;2023-12-04T08:08:52;0.90;99.90
23719;DHT22;43322;52.230;5.702;2023-12-04T08:11:20;1.00;99.90
23719;DHT22;43322;52.230;5.702;2023-12-04T08:13:46;1.00;99.90
23719;DHT22;43322;52.230;5.702;2023-12-04T08:16:14;1.00;99.90
23719;DHT22;43322;52.230;5.702;2023-12-04T08:18:41;1.00;99.90
23719;DHT22;43322;52.230;5.702;2023-12-04T08:21:09;1.00;99.90
23719;DHT22;43322;52.230;5.702;2023-12-04T08:23:37;1.00;99.90
23719;DHT22;43322;52.230;5.702;2023-12-04T08:26:04;1.00;99.90
23719;DHT22;43322;52.230;5.702;2023-12-04T08:28:32;1.00;99.90
23719;DHT22;43322;52.230;5.702;2023-12-04T08:30:59;1.90;99.90
23719;DHT22;43322;52.230;5.702;2023-12-04T08:33:26;1.10;99.90
23719;DHT22;43322;52.230;5.702;2023-12-04T08:35:53;1.10;99.90
23719;DHT22;43322;52.230;5.702;2023-12-04T08:38:20;1.10;99.90
23719;DHT22;43322;52.230;5.702;2023-12-04T08:40:48;1.00;99.90
23719;DHT22;43322;52.230;5.702;2023-12-04T08:43:14;1.10;99.90
23719;DHT22;43322;52.230;5.702;2023-12-04T08:45:41;1.10;99.90
23719;DHT22;43322;52.230;5.702;2023-12-04T08:48:08;1.20;99.90
23719;DHT22;43322;52.230;5.702;2023-12-04T08:50:35;1.20;99.90
23719;DHT22;43322;52.230;5.702;2023-12-04T08:53:03;1.10;99.90
23719;DHT22;43322;52.230;5.702;2023-12-04T08:55:30;1.20;99.90
23719;DHT22;43322;52.230;5.702;2023-12-04T08:57:58;1.20;99.90
23719;DHT22;43322;52.230;5.702;2023-12-04T09:00:25;1.30;99.90
23719;DHT22;43322;52.230;5.702;2023-12-04T09:02:52;1.20;99.90
23719;DHT22;43322;52.230;5.702;2023-12-04T09:05:19;1.20;99.90
23719;DHT22;43322;52.230;5.702;2023-12-04T09:07:46;1.30;99.90
23719;DHT22;43322;52.230;5.702;2023-12-04T09:10:13;1.40;99.90
23719;DHT22;43322;52.230;5.702;2023-12-04T09:12:40;1.40;99.90
23719;DHT22;43322;52.230;5.702;2023-12-04T09:15:08;1.50;99.90
23719;DHT22;43322;52.230;5.702;2023-12-04T09:17:35;1.40;99.90
23719;DHT22;43322;52.230;5.702;2023-12-04T09:20:02;1.40;99.90
23719;DHT22;43322;52.230;5.702;2023-12-04T09:22:31;1.50;99.90
23719;DHT22;43322;52.230;5.702;2023-12-04T09:24:58;1.60;99.90
23719;DHT22;43322;52.230;5.702;2023-12-04T09:27:24;1.70;99.90
23719;DHT22;43322;52.230;5.702;2023-12-04T09:29:51;1.80;99.90
23719;DHT22;43322;52.230;5.702;2023-12-04T09:32:19;1.90;99.90
23719;DHT22;43322;52.230;5.702;2023-12-04T09:34:46;1.90;99.90
23719;DHT22;43322;52.230;5.702;2023-12-04T09:37:13;2.00;99.90
23719;DHT22;43322;52.230;5.702;2023-12-04T09:39:40;2.00;99.90
23719;DHT22;43322;52.230;5.702;2023-12-04T09:42:07;1.90;99.90
23719;DHT22;43322;52.230;5.702;2023-12-04T09:44:36;2.00;99.90
23719;DHT22;43322;52.230;5.702;2023-12-04T09:47:05;2.00;99.90
23719;DHT22;43322;52.230;5.702;2023-12-04T09:49:33;2.10;99.90
23719;DHT22;43322;52.230;5.702;2023-12-04T09:52:00;2.10;99.90
23719;DHT22;43322;52.230;5.702;2023-12-04T09:54:28;2.20;99.90
23719;DHT22;43322;52.230;5.702;2023-12-04T09:56:56;2.10;99.90
23719;DHT22;43322;52.230;5.702;2023-12-04T09:59:24;2.10;99.90
23719;DHT22;43322;52.230;5.702;2023-12-04T10:01:51;2.10;99.90
23719;DHT22;43322;52.230;5.702;2023-12-04T10:04:19;2.00;99.90
23719;DHT22;43322;52.230;5.702;2023-12-04T10:06:49;2.00;99.90
23719;DHT22;43322;52.230;5.702;2023-12-04T10:09:17;2.10;99.90
23719;DHT22;43322;52.230;5.702;2023-12-04T10:11:45;2.10;99.90
23719;DHT22;43322;52.230;5.702;2023-12-04T10:14:16;2.10;99.90
23719;DHT22;43322;52.230;5.702;2023-12-04T10:16:43;2.00;99.90
23719;DHT22;43322;52.230;5.702;2023-12-04T10:19:18;2.00;99.90
23719;DHT22;43322;52.230;5.702;2023-12-04T10:21:46;2.10;99.90
23719;DHT22;43322;52.230;5.702;2023-12-04T10:24:30;2.00;99.90
23719;DHT22;43322;52.230;5.702;2023-12-04T10:26:57;2.00;99.90
23719;DHT22;43322;52.230;5.702;2023-12-04T10:29:27;2.10;99.90
23719;DHT22;43322;52.230;5.702;2023-12-04T10:31:54;2.10;99.90
23719;DHT22;43322;52.230;5.702;2023-12-04T10:34:21;2.20;99.90
23719;DHT22;43322;52.230;5.702;2023-12-04T10:36:51;2.30;99.90
23719;DHT22;43322;52.230;5.702;2023-12-04T10:39:20;2.20;99.90
23719;DHT22;43322;52.230;5.702;2023-12-04T10:41:59;2.30;99.90
23719;DHT22;43322;52.230;5.702;2023-12-04T10:44:26;2.30;99.90
23719;DHT22;43322;52.230;5.702;2023-12-04T10:46:55;2.50;99.90
23719;DHT22;43322;52.230;5.702;2023-12-04T10:49:25;2.50;99.90
23719;DHT22;43322;52.230;5.702;2023-12-04T10:51:54;2.30;99.90
23719;DHT22;43322;52.230;5.702;2023-12-04T10:54:23;2.30;99.90
23719;DHT22;43322;52.230;5.702;2023-12-04T10:56:52;2.50;99.90
23719;DHT22;43322;52.230;5.702;2023-12-04T10:59:23;2.50;99.90
23719;DHT22;43322;52.230;5.702;2023-12-04T11:01:54;2.50;99.90
23719;DHT22;43322;52.230;5.702;2023-12-04T11:04:24;2.50;99.90
23719;DHT22;43322;52.230;5.702;2023-12-04T11:06:53;2.50;99.90
23719;DHT22;43322;52.230;5.702;2023-12-04T11:09:23;2.70;99.90
23719;DHT22;43322;52.230;5.702;2023-12-04T11:11:57;2.40;99.90
23719;DHT22;43322;52.230;5.702;2023-12-04T11:14:34;2.50;99.90
23719;DHT22;43322;52.230;5.702;2023-12-04T11:17:04;2.60;99.90
23719;DHT22;43322;52.230;5.702;2023-12-04T11:19:35;2.50;99.90
23719;DHT22;43322;52.230;5.702;2023-12-04T11:22:04;2.60;99.90
23719;DHT22;43322;52.230;5.702;2023-12-04T11:24:35;2.60;99.90
23719;DHT22;43322;52.230;5.702;2023-12-04T11:27:03;2.60;99.90
23719;DHT22;43322;52.230;5.702;2023-12-04T11:29:30;2.60;99.90
23719;DHT22;43322;52.230;5.702;2023-12-04T11:31:58;2.60;99.90
23719;DHT22;43322;52.230;5.702;2023-12-04T11:34:25;2.50;99.90
23719;DHT22;43322;52.230;5.702;2023-12-04T11:36:52;2.60;99.90
23719;DHT22;43322;52.230;5.702;2023-12-04T11:39:19;2.60;99.90
23719;DHT22;43322;52.230;5.702;2023-12-04T11:41:47;2.50;99.90
23719;DHT22;43322;52.230;5.702;2023-12-04T11:44:14;2.50;99.90
23719;DHT22;43322;52.230;5.702;2023-12-04T11:46:55;2.50;99.90
23719;DHT22;43322;52.230;5.702;2023-12-04T11:49:29;2.50;99.90
23719;DHT22;43322;52.230;5.702;2023-12-04T11:51:57;2.40;99.90
23719;DHT22;43322;52.230;5.702;2023-12-04T11:54:26;2.30;99.90
23719;DHT22;43322;52.230;5.702;2023-12-04T11:57:21;2.30;99.90
23719;DHT22;43322;52.230;5.702;2023-12-04T11:59:49;2.50;99.90
23719;DHT22;43322;52.230;5.702;2023-12-04T12:02:17;2.50;99.90
23719;DHT22;43322;52.230;5.702;2023-12-04T12:04:44;2.40;99.90
23719;DHT22;43322;52.230;5.702;2023-12-04T12:07:11;2.40;99.90
23719;DHT22;43322;52.230;5.702;2023-12-04T12:09:38;2.30;99.90
23719;DHT22;43322;52.230;5.702;2023-12-04T12:12:07;2.30;99.90
23719;DHT22;43322;52.230;5.702;2023-12-04T12:14:34;2.30;99.90
23719;DHT22;43322;52.230;5.702;2023-12-04T12:17:01;2.30;99.90
23719;DHT22;43322;52.230;5.702;2023-12-04T12:19:28;2.30;99.90
23719;DHT22;43322;52.230;5.702;2023-12-04T12:21:55;2.40;99.90
23719;DHT22;43322;52.230;5.702;2023-12-04T12:24:23;2.40;99.90
23719;DHT22;43322;52.230;5.702;2023-12-04T12:26:50;2.30;99.90
23719;DHT22;43322;52.230;5.702;2023-12-04T12:29:18;2.30;99.90
23719;DHT22;43322;52.230;5.702;2023-12-04T12:31:45;2.30;99.90
23719;DHT22;43322;52.230;5.702;2023-12-04T12:34:12;2.30;99.90
23719;DHT22;43322;52.230;5.702;2023-12-04T12:36:40;2.30;99.90
23719;DHT22;43322;52.230;5.702;2023-12-04T12:39:07;2.30;99.90
23719;DHT22;43322;52.230;5.702;2023-12-04T12:41:34;2.30;99.90
23719;DHT22;43322;52.230;5.702;2023-12-04T12:44:01;2.30;99.90
23719;DHT22;43322;52.230;5.702;2023-12-04T12:46:30;2.30;99.90
23719;DHT22;43322;52.230;5.702;2023-12-04T12:48:57;2.40;99.90
23719;DHT22;43322;52.230;5.702;2023-12-04T12:51:24;2.30;99.90
23719;DHT22;43322;52.230;5.702;2023-12-04T12:53:51;2.30;99.90
23719;DHT22;43322;52.230;5.702;2023-12-04T12:56:17;2.30;99.90
23719;DHT22;43322;52.230;5.702;2023-12-04T12:58:44;2.40;99.90
23719;DHT22;43322;52.230;5.702;2023-12-04T13:01:12;2.40;99.90
23719;DHT22;43322;52.230;5.702;2023-12-04T13:03:40;2.50;99.90
23719;DHT22;43322;52.230;5.702;2023-12-04T13:06:08;2.40;99.90
23719;DHT22;43322;52.230;5.702;2023-12-04T13:08:35;2.50;99.90
23719;DHT22;43322;52.230;5.702;2023-12-04T13:11:03;2.50;99.90
23719;DHT22;43322;52.230;5.702;2023-12-04T13:13:30;2.50;99.90
23719;DHT22;43322;52.230;5.702;2023-12-04T13:15:57;2.50;99.90
23719;DHT22;43322;52.230;5.702;2023-12-04T13:18:24;2.70;99.90
23719;DHT22;43322;52.230;5.702;2023-12-04T13:20:53;2.70;99.90
23719;DHT22;43322;52.230;5.702;2023-12-04T13:23:19;2.70;99.90
23719;DHT22;43322;52.230;5.702;2023-12-04T13:25:49;2.60;99.90
23719;DHT22;43322;52.230;5.702;2023-12-04T13:28:16;2.70;99.90
23719;DHT22;43322;52.230;5.702;2023-12-04T13:30:43;2.60;99.90
23719;DHT22;43322;52.230;5.702;2023-12-04T13:33:10;2.50;99.90
23719;DHT22;43322;52.230;5.702;2023-12-04T13:35:37;2.40;99.90
23719;DHT22;43322;52.230;5.702;2023-12-04T13:38:05;2.50;99.90
23719;DHT22;43322;52.230;5.702;2023-12-04T13:40:38;2.40;99.90
23719;DHT22;43322;52.230;5.702;2023-12-04T13:43:05;2.40;99.90
23719;DHT22;43322;52.230;5.702;2023-12-04T13:45:49;2.30;99.90
23719;DHT22;43322;52.230;5.702;2023-12-04T13:48:16;2.30;99.90
23719;DHT22;43322;52.230;5.702;2023-12-04T13:50:46;2.30;99.90
23719;DHT22;43322;52.230;5.702;2023-12-04T13:53:17;2.20;99.90
23719;DHT22;43322;52.230;5.702;2023-12-04T13:55:46;2.20;99.90
23719;DHT22;43322;52.230;5.702;2023-12-04T13:58:34;2.10;99.90
23719;DHT22;43322;52.230;5.702;2023-12-04T14:01:07;2.00;99.90
23719;DHT22;43322;52.230;5.702;2023-12-04T14:03:39;2.00;99.90
23719;DHT22;43322;52.230;5.702;2023-12-04T14:06:07;2.00;99.90
23719;DHT22;43322;52.230;5.702;2023-12-04T14:08:35;2.10;99.90
23719;DHT22;43322;52.230;5.702;2023-12-04T14:11:02;2.60;99.90
23719;DHT22;43322;52.230;5.702;2023-12-04T14:13:29;2.00;99.90
23719;DHT22;43322;52.230;5.702;2023-12-04T14:15:56;2.00;99.90
23719;DHT22;43322;52.230;5.702;2023-12-04T14:18:23;2.00;99.90
23719;DHT22;43322;52.230;5.702;2023-12-04T14:20:51;2.10;99.90
23719;DHT22;43322;52.230;5.702;2023-12-04T14:23:18;2.00;99.90
23719;DHT22;43322;52.230;5.702;2023-12-04T14:25:47;2.00;99.90
23719;DHT22;43322;52.230;5.702;2023-12-04T14:28:14;1.90;99.90
23719;DHT22;43322;52.230;5.702;2023-12-04T14:30:40;2.00;99.90
23719;DHT22;43322;52.230;5.702;2023-12-04T14:33:08;1.90;99.90
23719;DHT22;43322;52.230;5.702;2023-12-04T14:35:34;1.90;99.90
23719;DHT22;43322;52.230;5.702;2023-12-04T14:38:02;1.90;99.90
23719;DHT22;43322;52.230;5.702;2023-12-04T14:40:30;1.90;99.90
23719;DHT22;43322;52.230;5.702;2023-12-04T14:42:58;1.80;99.90
23719;DHT22;43322;52.230;5.702;2023-12-04T14:45:25;1.90;99.90
23719;DHT22;43322;52.230;5.702;2023-12-04T14:47:52;1.80;99.90
23719;DHT22;43322;52.230;5.702;2023-12-04T14:50:22;2.00;99.90
23719;DHT22;43322;52.230;5.702;2023-12-04T14:52:48;2.00;99.90
23719;DHT22;43322;52.230;5.702;2023-12-04T14:55:16;2.00;99.90
23719;DHT22;43322;52.230;5.702;2023-12-04T14:58:02;2.00;99.90
23719;DHT22;43322;52.230;5.702;2023-12-04T15:00:43;2.00;99.90
23719;DHT22;43322;52.230;5.702;2023-12-04T15:03:33;1.90;99.90
23719;DHT22;43322;52.230;5.702;2023-12-04T15:06:17;2.00;99.90
23719;DHT22;43322;52.230;5.702;2023-12-04T15:09:10;2.00;99.90
23719;DHT22;43322;52.230;5.702;2023-12-04T15:11:54;2.00;99.90
23719;DHT22;43322;52.230;5.702;2023-12-04T15:14:43;1.70;99.90
23719;DHT22;43322;52.230;5.702;2023-12-04T15:17:15;2.00;99.90
23719;DHT22;43322;52.230;5.702;2023-12-04T15:19:55;1.90;99.90
23719;DHT22;43322;52.230;5.702;2023-12-04T15:22:45;1.90;99.90
23719;DHT22;43322;52.230;5.702;2023-12-04T15:25:13;1.90;99.90
23719;DHT22;43322;52.230;5.702;2023-12-04T15:27:39;1.90;99.90
23719;DHT22;43322;52.230;5.702;2023-12-04T15:30:07;1.80;99.90
23719;DHT22;43322;52.230;5.702;2023-12-04T15:32:34;1.80;99.90
23719;DHT22;43322;52.230;5.702;2023-12-04T15:35:00;2.00;99.90
23719;DHT22;43322;52.230;5.702;2023-12-04T15:37:26;1.90;99.90
23719;DHT22;43322;52.230;5.702;2023-12-04T15:39:53;1.90;99.90
23719;DHT22;43322;52.230;5.702;2023-12-04T15:42:20;1.80;99.90
23719;DHT22;43322;52.230;5.702;2023-12-04T15:44:47;1.80;99.90
23719;DHT22;43322;52.230;5.702;2023-12-04T15:47:13;1.90;99.90
23719;DHT22;43322;52.230;5.702;2023-12-04T15:49:39;1.90;99.90